createdAt,value
2018-05-21T00:00:43.855Z,15.60
2018-05-21T00:03:10.203Z,15.40
2018-05-21T00:05:36.556Z,15.60
2018-05-21T00:08:02.887Z,15.60
2018-05-21T00:10:29.239Z,15.50
2018-05-21T00:12:56.324Z,15.30
2018-05-21T00:15:22.896Z,15.20
2018-05-21T00:17:50.105Z,15.50
2018-05-21T00:20:16.438Z,15.40
2018-05-21T00:22:42.744Z,15.40
2018-05-21T00:25:10.561Z,15.30
2018-05-21T00:27:36.857Z,15.30
2018-05-21T00:30:03.226Z,15.20
2018-05-21T00:32:29.541Z,15.00
2018-05-21T00:34:55.892Z,15.10
2018-05-21T00:37:22.195Z,15.50
2018-05-21T00:39:48.664Z,15.30
2018-05-21T00:42:14.983Z,14.80
2018-05-21T00:44:41.346Z,15.00
2018-05-21T00:47:08.492Z,14.70
2018-05-21T00:49:34.809Z,14.60
2018-05-21T00:52:01.114Z,15.00
2018-05-21T00:54:27.441Z,14.90
2018-05-21T00:56:53.790Z,15.10
2018-05-21T00:59:20.092Z,15.20
2018-05-21T01:01:46.419Z,15.20
2018-05-21T01:04:12.713Z,14.80
2018-05-21T01:06:39.799Z,14.50
2018-05-21T01:09:06.110Z,14.40
2018-05-21T01:11:32.470Z,14.40
2018-05-21T01:13:58.800Z,14.50
2018-05-21T01:16:25.148Z,14.70
2018-05-21T01:18:51.498Z,14.40
2018-05-21T01:21:17.829Z,14.40
2018-05-21T01:23:44.151Z,14.40
2018-05-21T01:26:10.476Z,14.00
2018-05-21T01:28:36.793Z,14.30
2018-05-21T01:31:03.133Z,14.30
2018-05-21T01:33:29.566Z,14.10
2018-05-21T01:35:55.919Z,13.90
2018-05-21T01:38:23.041Z,14.20
2018-05-21T01:40:49.460Z,14.10
2018-05-21T01:43:16.468Z,14.00
2018-05-21T01:45:42.825Z,13.90
2018-05-21T01:48:09.145Z,14.20
2018-05-21T01:50:35.498Z,13.70
2018-05-21T01:53:01.830Z,13.80
2018-05-21T01:55:28.153Z,13.60
2018-05-21T01:57:54.492Z,14.00
2018-05-21T02:00:20.810Z,13.90
2018-05-21T02:02:47.162Z,13.70
2018-05-21T02:05:13.502Z,13.50
2018-05-21T02:07:40.795Z,13.40
2018-05-21T02:10:07.177Z,13.00
2018-05-21T02:12:33.534Z,12.80
2018-05-21T02:14:59.835Z,12.70
2018-05-21T02:17:26.186Z,12.90
2018-05-21T02:19:52.495Z,12.90
2018-05-21T02:22:18.837Z,12.80
2018-05-21T02:24:45.150Z,12.90
2018-05-21T02:27:11.478Z,12.90
2018-05-21T02:29:37.802Z,13.30
2018-05-21T02:32:04.146Z,12.90
2018-05-21T02:34:30.480Z,12.80
2018-05-21T02:36:56.825Z,13.50
2018-05-21T02:39:23.137Z,13.40
2018-05-21T02:41:49.460Z,13.70
2018-05-21T02:44:15.827Z,13.90
2018-05-21T02:46:42.178Z,13.70
2018-05-21T02:49:09.244Z,13.40
2018-05-21T02:51:35.619Z,13.30
2018-05-21T02:54:01.939Z,13.10
2018-05-21T02:56:28.291Z,12.60
2018-05-21T02:58:54.620Z,12.60
2018-05-21T03:01:20.926Z,12.90
2018-05-21T03:03:47.263Z,13.20
2018-05-21T03:06:13.581Z,12.90
2018-05-21T03:08:39.909Z,13.00
2018-05-21T03:11:06.229Z,13.00
2018-05-21T03:13:32.567Z,13.00
2018-05-21T03:15:58.911Z,13.20
2018-05-21T03:18:25.241Z,13.10
2018-05-21T03:20:51.550Z,13.10
2018-05-21T03:23:17.880Z,13.30
2018-05-21T03:25:44.198Z,13.20
2018-05-21T03:28:10.581Z,12.90
2018-05-21T03:30:36.884Z,12.80
2018-05-21T03:33:03.246Z,13.00
2018-05-21T03:35:29.589Z,13.10
2018-05-21T03:37:55.944Z,12.90
2018-05-21T03:40:22.269Z,13.20
2018-05-21T03:42:48.618Z,13.00
2018-05-21T03:45:14.938Z,12.90
2018-05-21T03:47:41.282Z,13.00
2018-05-21T03:50:07.607Z,13.40
2018-05-21T03:52:33.930Z,13.70
2018-05-21T03:55:00.248Z,13.80
2018-05-21T03:57:26.606Z,13.70
2018-05-21T04:00:07.542Z,13.40
2018-05-21T04:02:46.296Z,13.50
2018-05-21T04:05:13.305Z,13.40
2018-05-21T04:07:39.664Z,13.40
2018-05-21T04:10:06.000Z,13.20
2018-05-21T04:12:32.942Z,13.60
2018-05-21T04:14:59.261Z,13.60
2018-05-21T04:17:25.590Z,13.40
2018-05-21T04:19:51.939Z,13.60
2018-05-21T04:22:18.251Z,13.40
2018-05-21T04:24:45.216Z,13.50
2018-05-21T04:27:11.538Z,13.50
2018-05-21T04:29:37.875Z,13.30
2018-05-21T04:32:04.190Z,12.90
2018-05-21T04:34:30.530Z,12.80
2018-05-21T04:36:56.852Z,12.90
2018-05-21T04:39:23.181Z,13.00
2018-05-21T04:41:49.481Z,13.00
2018-05-21T04:44:16.602Z,13.50
2018-05-21T04:46:42.908Z,13.50
2018-05-21T04:49:09.237Z,13.40
2018-05-21T04:51:35.534Z,13.50
2018-05-21T04:54:02.655Z,13.70
2018-05-21T04:56:29.028Z,13.70
2018-05-21T04:58:55.359Z,13.90
2018-05-21T05:01:21.677Z,13.90
2018-05-21T05:03:48.749Z,13.70
2018-05-21T05:06:15.328Z,13.70
2018-05-21T05:08:42.411Z,14.00
2018-05-21T05:11:08.726Z,13.90
2018-05-21T05:13:35.822Z,14.00
2018-05-21T05:16:02.134Z,14.00
2018-05-21T05:18:28.477Z,13.90
2018-05-21T05:20:54.930Z,14.20
2018-05-21T05:23:21.276Z,14.30
2018-05-21T05:25:47.624Z,14.10
2018-05-21T05:28:14.665Z,14.40
2018-05-21T05:30:40.993Z,14.30
2018-05-21T05:33:08.069Z,14.50
2018-05-21T05:35:35.159Z,14.50
2018-05-21T05:38:01.485Z,14.50
2018-05-21T05:40:27.826Z,14.60
2018-05-21T05:42:54.145Z,14.70
2018-05-21T05:45:20.485Z,14.80
2018-05-21T05:47:46.793Z,14.80
2018-05-21T05:50:13.130Z,14.70
2018-05-21T05:52:39.460Z,14.80
2018-05-21T05:55:05.818Z,15.00
2018-05-21T05:57:32.139Z,14.90
2018-05-21T05:59:58.476Z,15.00
2018-05-21T06:02:24.789Z,15.00
2018-05-21T06:04:51.158Z,15.10
2018-05-21T06:07:18.275Z,15.20
2018-05-21T06:09:44.615Z,15.10
2018-05-21T06:12:10.928Z,15.20
2018-05-21T06:14:37.278Z,15.30
2018-05-21T06:17:03.602Z,15.40
2018-05-21T06:19:29.942Z,15.50
2018-05-21T06:21:57.793Z,15.50
2018-05-21T06:24:24.139Z,15.40
2018-05-21T06:26:50.456Z,15.80
2018-05-21T06:29:16.788Z,15.90
2018-05-21T06:31:43.110Z,16.00
2018-05-21T06:34:09.567Z,16.10
2018-05-21T06:36:35.802Z,16.00
2018-05-21T06:39:02.160Z,16.10
2018-05-21T06:41:28.549Z,16.20
2018-05-21T06:43:54.871Z,16.20
2018-05-21T06:46:22.754Z,16.40
2018-05-21T06:48:49.071Z,16.40
2018-05-21T06:51:15.421Z,16.60
2018-05-21T06:53:43.214Z,16.80
2018-05-21T06:56:09.588Z,16.80
2018-05-21T06:58:35.905Z,16.80
2018-05-21T07:01:03.172Z,17.10
2018-05-21T07:03:29.488Z,17.00
2018-05-21T07:05:55.841Z,17.00
2018-05-21T07:08:22.158Z,17.20
2018-05-21T07:10:48.504Z,17.30
2018-05-21T07:13:14.868Z,17.30
2018-05-21T07:15:41.209Z,17.30
2018-05-21T07:18:07.594Z,17.50
2018-05-21T07:20:33.915Z,17.50
2018-05-21T07:23:00.227Z,17.60
2018-05-21T07:25:26.633Z,17.70
2018-05-21T07:27:52.963Z,17.90
2018-05-21T07:30:19.313Z,17.90
2018-05-21T07:32:45.645Z,17.80
2018-05-21T07:35:11.990Z,17.80
2018-05-21T07:37:38.830Z,18.10
2018-05-21T07:40:05.273Z,18.20
2018-05-21T07:42:31.606Z,18.40
2018-05-21T07:44:57.957Z,18.50
2018-05-21T07:47:24.302Z,18.50
2018-05-21T07:49:51.592Z,18.50
2018-05-21T07:52:17.958Z,18.50
2018-05-21T07:54:44.261Z,18.70
2018-05-21T07:57:10.598Z,18.70
2018-05-21T07:59:36.941Z,18.70
2018-05-21T08:02:03.381Z,18.80
2018-05-21T08:04:29.907Z,18.80
2018-05-21T08:06:56.249Z,18.90
2018-05-21T08:09:24.089Z,19.00
2018-05-21T08:11:50.541Z,19.00
2018-05-21T08:14:16.995Z,19.10
2018-05-21T08:16:43.366Z,19.30
2018-05-21T08:19:09.729Z,19.30
2018-05-21T08:21:36.101Z,19.50
2018-05-21T08:24:02.446Z,19.40
2018-05-21T08:26:29.535Z,19.50
2018-05-21T08:28:57.831Z,19.50
2018-05-21T08:31:24.254Z,19.60
2018-05-21T08:33:50.600Z,19.50
2018-05-21T08:36:16.953Z,19.60
2018-05-21T08:38:44.050Z,19.70
2018-05-21T08:41:10.442Z,19.60
2018-05-21T08:43:37.507Z,19.80
2018-05-21T08:46:03.932Z,19.70
2018-05-21T08:48:30.334Z,19.80
2018-05-21T08:50:56.634Z,19.80
2018-05-21T08:53:22.942Z,19.90
2018-05-21T08:55:49.253Z,19.90
2018-05-21T08:58:15.588Z,19.90
2018-05-21T09:00:41.917Z,20.10
2018-05-21T09:03:08.283Z,20.10
2018-05-21T09:05:34.603Z,20.30
2018-05-21T09:08:00.945Z,20.40
2018-05-21T09:10:27.311Z,20.30
2018-05-21T09:12:54.376Z,20.20
2018-05-21T09:15:20.692Z,20.20
2018-05-21T09:17:47.770Z,20.40
2018-05-21T09:20:14.076Z,20.30
2018-05-21T09:22:41.238Z,20.50
2018-05-21T09:25:07.516Z,20.40
2018-05-21T09:27:33.879Z,20.40
2018-05-21T09:30:00.960Z,20.60
2018-05-21T09:32:27.402Z,20.60
2018-05-21T09:34:54.401Z,20.60
2018-05-21T09:37:20.770Z,20.50
2018-05-21T09:39:47.184Z,20.80
2018-05-21T09:42:13.537Z,20.90
2018-05-21T09:44:39.897Z,20.80
2018-05-21T09:47:06.239Z,20.90
2018-05-21T09:49:32.539Z,21.00
2018-05-21T09:51:58.871Z,20.90
2018-05-21T09:54:25.256Z,21.00
2018-05-21T09:56:52.331Z,21.30
2018-05-21T09:59:18.627Z,21.30
2018-05-21T10:01:45.760Z,21.20
2018-05-21T10:04:12.071Z,21.20
2018-05-21T10:06:38.408Z,21.30
2018-05-21T10:09:05.137Z,21.40
2018-05-21T10:11:31.603Z,21.40
2018-05-21T10:13:58.362Z,21.40
2018-05-21T10:16:24.842Z,21.20
2018-05-21T10:18:51.332Z,21.40
2018-05-21T10:21:18.409Z,21.30
2018-05-21T10:23:46.290Z,21.30
2018-05-21T10:26:13.038Z,21.30
2018-05-21T10:28:39.974Z,21.20
2018-05-21T10:31:07.081Z,21.20
2018-05-21T10:33:33.427Z,21.20
2018-05-21T10:35:59.734Z,21.40
2018-05-21T10:38:26.071Z,21.40
2018-05-21T10:40:52.415Z,21.40
2018-05-21T10:43:18.894Z,21.40
2018-05-21T10:45:45.617Z,21.50
2018-05-21T10:48:12.868Z,21.30
2018-05-21T10:50:39.226Z,21.30
2018-05-21T10:53:05.627Z,21.40
2018-05-21T10:55:33.003Z,21.60
2018-05-21T10:57:59.425Z,21.50
2018-05-21T11:00:25.785Z,21.50
2018-05-21T11:02:52.873Z,21.50
2018-05-21T11:05:19.232Z,21.40
2018-05-21T11:07:45.568Z,21.50
2018-05-21T11:10:12.963Z,21.80
2018-05-21T11:12:40.044Z,21.80
2018-05-21T11:15:06.366Z,21.70
2018-05-21T11:17:32.689Z,21.80
2018-05-21T11:19:59.049Z,21.90
2018-05-21T11:22:25.406Z,22.00
2018-05-21T11:24:51.746Z,21.80
2018-05-21T11:27:19.373Z,22.00
2018-05-21T11:29:45.793Z,21.90
2018-05-21T11:32:12.114Z,22.00
2018-05-21T11:34:38.557Z,22.20
2018-05-21T11:37:04.974Z,22.10
2018-05-21T11:39:31.345Z,22.20
2018-05-21T11:41:57.875Z,22.30
2018-05-21T11:44:24.300Z,22.20
2018-05-21T11:46:50.616Z,22.30
2018-05-21T11:49:16.968Z,22.50
2018-05-21T11:51:43.291Z,22.50
2018-05-21T11:54:09.642Z,22.50
2018-05-21T11:56:36.715Z,22.40
2018-05-21T11:59:03.066Z,22.40
2018-05-21T12:01:29.416Z,22.50
2018-05-21T12:03:56.577Z,22.50
2018-05-21T12:06:23.121Z,22.70
2018-05-21T12:08:50.720Z,22.80
2018-05-21T12:11:17.261Z,22.90
2018-05-21T12:13:44.380Z,22.80
2018-05-21T12:16:10.685Z,22.90
2018-05-21T12:18:37.318Z,23.00
2018-05-21T12:21:03.617Z,23.00
2018-05-21T12:23:29.959Z,22.90
2018-05-21T12:25:56.270Z,22.90
2018-05-21T12:28:22.591Z,23.10
2018-05-21T12:30:49.672Z,23.00
2018-05-21T12:33:16.016Z,22.90
2018-05-21T12:35:42.348Z,23.00
2018-05-21T12:38:08.735Z,23.10
2018-05-21T12:40:35.064Z,23.30
2018-05-21T12:43:01.692Z,23.20
2018-05-21T12:45:27.966Z,23.00
2018-05-21T12:47:54.266Z,23.10
2018-05-21T12:50:21.354Z,23.30
2018-05-21T12:52:48.096Z,23.30
2018-05-21T12:55:14.447Z,23.30
2018-05-21T12:57:40.856Z,23.40
2018-05-21T13:00:07.667Z,23.60
2018-05-21T13:02:34.133Z,23.70
2018-05-21T13:05:00.769Z,23.70
2018-05-21T13:07:27.171Z,23.80
2018-05-21T13:09:53.540Z,23.90
2018-05-21T13:12:19.867Z,24.00
2018-05-21T13:14:46.211Z,23.90
2018-05-21T13:17:15.728Z,24.00
2018-05-21T13:19:42.826Z,24.10
2018-05-21T13:22:09.151Z,24.10
2018-05-21T13:24:35.502Z,24.20
2018-05-21T13:27:01.806Z,24.20
2018-05-21T13:29:28.129Z,24.20
2018-05-21T13:31:54.426Z,24.10
2018-05-21T13:34:21.523Z,24.50
2018-05-21T13:36:47.829Z,24.50
2018-05-21T13:39:14.152Z,24.80
2018-05-21T13:41:40.504Z,24.90
2018-05-21T13:44:07.845Z,25.00
2018-05-21T13:46:34.175Z,25.10
2018-05-21T13:49:00.484Z,25.00
2018-05-21T13:51:27.572Z,25.20
2018-05-21T13:53:53.877Z,25.20
2018-05-21T13:56:20.223Z,25.40
2018-05-21T13:58:46.537Z,25.40
2018-05-21T14:01:12.910Z,25.30
2018-05-21T14:03:39.215Z,25.50
2018-05-21T14:06:05.558Z,25.70
2018-05-21T14:08:31.861Z,25.60
2018-05-21T14:10:58.213Z,25.80
2018-05-21T14:13:24.563Z,26.00
2018-05-21T14:15:50.910Z,26.20
2018-05-21T14:18:17.229Z,26.50
2018-05-21T14:20:43.566Z,26.50
2018-05-21T14:23:09.916Z,26.80
2018-05-21T14:25:36.251Z,27.10
2018-05-21T14:28:03.316Z,27.10
2018-05-21T14:30:29.653Z,27.10
2018-05-21T14:32:55.969Z,27.40
2018-05-21T14:35:22.322Z,27.30
2018-05-21T14:37:48.683Z,27.30
2018-05-21T14:40:15.047Z,27.80
2018-05-21T14:42:41.332Z,27.80
2018-05-21T14:45:07.641Z,28.20
2018-05-21T14:47:33.978Z,27.90
2018-05-21T14:50:00.285Z,28.10
2018-05-21T14:52:26.627Z,27.60
2018-05-21T14:54:52.948Z,27.90
2018-05-21T14:57:19.290Z,27.90
2018-05-21T14:59:45.595Z,28.10
2018-05-21T15:02:12.929Z,28.20
2018-05-21T15:04:39.198Z,28.10
2018-05-21T15:07:05.544Z,28.70
2018-05-21T15:09:31.869Z,29.10
2018-05-21T15:11:58.866Z,28.90
2018-05-21T15:14:25.958Z,29.30
2018-05-21T15:16:52.306Z,29.00
2018-05-21T15:19:18.614Z,29.10
2018-05-21T15:21:44.966Z,29.30
2018-05-21T15:24:11.319Z,29.60
2018-05-21T15:26:37.678Z,29.80
2018-05-21T15:29:04.838Z,30.20
2018-05-21T15:31:31.203Z,30.20
2018-05-21T15:33:57.516Z,30.30
2018-05-21T15:36:23.882Z,30.50
2018-05-21T15:38:50.216Z,30.30
2018-05-21T15:41:16.562Z,30.50
2018-05-21T15:43:42.863Z,30.10
2018-05-21T15:46:09.211Z,30.20
2018-05-21T15:48:35.525Z,30.30
2018-05-21T15:51:01.848Z,29.90
2018-05-21T15:53:28.189Z,30.00
2018-05-21T15:55:54.499Z,29.90
2018-05-21T15:58:20.882Z,30.10
2018-05-21T16:00:47.218Z,30.30
2018-05-21T16:03:14.320Z,30.00
2018-05-21T16:05:40.684Z,29.90
2018-05-21T16:08:07.805Z,29.80
2018-05-21T16:10:34.239Z,29.80
2018-05-21T16:13:00.612Z,30.00
2018-05-21T16:15:27.663Z,29.90
2018-05-21T16:17:54.837Z,30.00
2018-05-21T16:20:21.762Z,29.90
2018-05-21T16:22:48.130Z,29.80
2018-05-21T16:25:14.488Z,29.90
2018-05-21T16:27:40.852Z,30.00
2018-05-21T16:30:07.238Z,30.10
2018-05-21T16:32:33.638Z,29.80
2018-05-21T16:34:59.966Z,29.50
2018-05-21T16:37:26.309Z,29.50
2018-05-21T16:39:52.632Z,29.80
2018-05-21T16:42:19.004Z,29.80
2018-05-21T16:44:45.323Z,30.10
2018-05-21T16:47:11.760Z,29.80
2018-05-21T16:49:38.084Z,29.80
2018-05-21T16:52:04.423Z,29.70
2018-05-21T16:54:31.518Z,29.80
2018-05-21T16:56:57.887Z,29.70
2018-05-21T16:59:24.278Z,29.40
2018-05-21T17:01:50.644Z,29.50
2018-05-21T17:04:16.985Z,29.70
2018-05-21T17:06:43.322Z,29.70
2018-05-21T17:09:09.737Z,29.70
2018-05-21T17:11:36.271Z,29.60
2018-05-21T17:14:02.637Z,29.50
2018-05-21T17:16:29.791Z,29.80
2018-05-21T17:18:56.166Z,29.80
2018-05-21T17:21:22.537Z,29.10
2018-05-21T17:23:50.405Z,28.80
2018-05-21T17:26:16.718Z,28.60
2018-05-21T17:28:43.927Z,28.50
2018-05-21T17:31:10.249Z,28.50
2018-05-21T17:33:36.588Z,28.60
2018-05-21T17:36:03.359Z,28.70
2018-05-21T17:38:29.920Z,28.90
2018-05-21T17:40:56.995Z,28.00
2018-05-21T17:43:24.099Z,28.10
2018-05-21T17:45:50.430Z,28.10
2018-05-21T17:48:16.786Z,28.10
2018-05-21T17:50:43.854Z,27.70
2018-05-21T17:53:10.202Z,27.60
2018-05-21T17:55:36.561Z,27.40
2018-05-21T17:58:02.902Z,27.20
2018-05-21T18:00:30.563Z,27.00
2018-05-21T18:02:56.890Z,27.10
2018-05-21T18:05:25.150Z,27.20
2018-05-21T18:07:51.498Z,27.10
2018-05-21T18:10:18.489Z,27.10
2018-05-21T18:12:44.847Z,26.70
2018-05-21T18:15:11.195Z,26.70
2018-05-21T18:17:37.519Z,26.70
2018-05-21T18:20:03.909Z,26.60
2018-05-21T18:22:30.292Z,26.40
2018-05-21T18:24:57.189Z,26.30
2018-05-21T18:27:23.560Z,26.10
2018-05-21T18:29:49.906Z,26.10
2018-05-21T18:32:17.017Z,25.60
2018-05-21T18:34:43.366Z,25.50
2018-05-21T18:37:09.698Z,25.50
2018-05-21T18:39:36.046Z,25.40
2018-05-21T18:42:03.207Z,25.20
2018-05-21T18:44:29.539Z,25.20
2018-05-21T18:46:56.611Z,25.10
2018-05-21T18:49:23.030Z,25.00
2018-05-21T18:51:50.150Z,24.90
2018-05-21T18:54:16.493Z,24.80
2018-05-21T18:56:42.816Z,24.70
2018-05-21T18:59:09.181Z,24.30
2018-05-21T19:01:35.493Z,23.90
2018-05-21T19:04:02.567Z,23.80
2018-05-21T19:06:28.910Z,23.80
2018-05-21T19:08:55.367Z,23.70
2018-05-21T19:11:21.721Z,23.60
2018-05-21T19:13:48.377Z,23.80
2018-05-21T19:16:16.219Z,23.40
2018-05-21T19:18:43.285Z,23.30
2018-05-21T19:21:10.377Z,23.00
2018-05-21T19:23:36.696Z,22.90
2018-05-21T19:26:03.048Z,22.80
2018-05-21T19:28:29.364Z,22.70
2018-05-21T19:30:55.712Z,22.60
2018-05-21T19:33:22.025Z,22.50
2018-05-21T19:35:48.371Z,22.30
2018-05-21T19:38:14.733Z,22.50
2018-05-21T19:40:41.852Z,22.30
2018-05-21T19:43:09.110Z,22.50
2018-05-21T19:45:35.457Z,22.40
2018-05-21T19:48:01.802Z,22.30
2018-05-21T19:50:28.915Z,22.10
2018-05-21T19:52:55.223Z,22.10
2018-05-21T19:55:22.105Z,22.10
2018-05-21T19:57:49.169Z,21.80
2018-05-21T20:00:15.674Z,21.80
2018-05-21T20:02:43.536Z,21.80
2018-05-21T20:05:09.875Z,21.70
2018-05-21T20:07:36.197Z,21.80
2018-05-21T20:10:02.549Z,21.60
2018-05-21T20:12:29.780Z,21.60
2018-05-21T20:14:56.090Z,21.50
2018-05-21T20:17:22.443Z,21.60
2018-05-21T20:19:48.716Z,21.50
2018-05-21T20:22:16.175Z,21.40
2018-05-21T20:24:42.490Z,21.30
2018-05-21T20:27:09.573Z,21.50
2018-05-21T20:29:35.887Z,21.50
2018-05-21T20:32:02.235Z,21.50
2018-05-21T20:34:28.557Z,21.20
2018-05-21T20:36:55.232Z,21.10
2018-05-21T20:39:21.542Z,21.00
2018-05-21T20:41:47.874Z,21.00
2018-05-21T20:44:14.198Z,20.90
2018-05-21T20:46:40.555Z,21.00
2018-05-21T20:49:07.427Z,21.00
2018-05-21T20:51:34.533Z,20.70
2018-05-21T20:54:00.845Z,20.60
2018-05-21T20:56:27.230Z,20.70
2018-05-21T20:58:53.554Z,20.60
2018-05-21T21:01:19.970Z,20.60
2018-05-21T21:03:47.006Z,20.40
2018-05-21T21:06:13.329Z,20.30
2018-05-21T21:08:39.662Z,20.30
2018-05-21T21:11:06.101Z,20.00
2018-05-21T21:13:32.433Z,20.20
2018-05-21T21:15:58.762Z,20.20
2018-05-21T21:18:25.081Z,20.10
2018-05-21T21:20:51.434Z,20.10
2018-05-21T21:23:19.332Z,20.20
2018-05-21T21:25:45.624Z,20.20
2018-05-21T21:28:11.927Z,20.10
2018-05-21T21:30:38.980Z,19.90
2018-05-21T21:33:05.322Z,19.80
2018-05-21T21:35:31.839Z,20.00
2018-05-21T21:37:58.202Z,19.90
2018-05-21T21:40:24.822Z,19.80
2018-05-21T21:42:51.275Z,20.00
2018-05-21T21:45:19.072Z,19.80
2018-05-21T21:47:45.381Z,19.80
2018-05-21T21:50:11.670Z,19.60
2018-05-21T21:52:38.011Z,19.50
2018-05-21T21:55:04.375Z,19.30
2018-05-21T21:57:30.713Z,19.30
2018-05-21T21:59:57.066Z,19.20
2018-05-21T22:02:23.456Z,19.10
2018-05-21T22:04:49.868Z,19.00
2018-05-21T22:07:17.948Z,19.10
2018-05-21T22:09:45.142Z,19.10
2018-05-21T22:12:11.505Z,19.10
2018-05-21T22:14:37.784Z,19.10
2018-05-21T22:17:04.883Z,18.70
2018-05-21T22:19:31.763Z,18.60
2018-05-21T22:21:58.863Z,18.90
2018-05-21T22:24:25.194Z,18.80
2018-05-21T22:26:51.574Z,18.90
2018-05-21T22:29:18.713Z,18.90
2018-05-21T22:31:45.054Z,18.80
2018-05-21T22:34:11.330Z,18.80
2018-05-21T22:36:37.665Z,18.70
2018-05-21T22:39:05.260Z,19.00
2018-05-21T22:41:31.785Z,19.10
2018-05-21T22:43:58.090Z,18.90
2018-05-21T22:46:24.473Z,18.80
2018-05-21T22:48:51.568Z,18.30
2018-05-21T22:51:17.903Z,18.20
2018-05-21T22:53:44.940Z,18.10
2018-05-21T22:56:11.961Z,17.90
2018-05-21T22:58:38.281Z,17.90
2018-05-21T23:01:05.334Z,17.80
2018-05-21T23:03:32.408Z,17.90
2018-05-21T23:05:58.706Z,17.80
2018-05-21T23:08:25.797Z,17.90
2018-05-21T23:10:52.110Z,17.90
2018-05-21T23:13:18.457Z,17.90
2018-05-21T23:15:44.795Z,17.90
2018-05-21T23:18:11.134Z,17.80
2018-05-21T23:20:37.494Z,17.80
2018-05-21T23:23:03.855Z,17.80
2018-05-21T23:25:30.898Z,17.90
2018-05-21T23:27:57.962Z,17.70
2018-05-21T23:30:24.285Z,17.70
2018-05-21T23:32:50.637Z,17.80
2018-05-21T23:35:16.952Z,17.80
2018-05-21T23:37:43.302Z,17.80
2018-05-21T23:40:09.625Z,17.60
2018-05-21T23:42:38.165Z,17.50
2018-05-21T23:45:04.470Z,17.70
2018-05-21T23:47:31.587Z,17.60
2018-05-21T23:49:57.889Z,17.60
2018-05-21T23:52:24.989Z,17.70
2018-05-21T23:54:51.299Z,17.70
2018-05-21T23:57:17.631Z,17.70
2018-05-21T23:59:44.710Z,17.30
